Language: 


Des rapports , des résumés tant et plus, au choix de chacun....


Données Historiques de Météogheer
 
Journalier Rapport pour Octobre 23, 2019 Unitée:  Métrique    Impériale   Les deux
Suivant Jour »
Journalier Hebdomadaire Mensuel Annuel Sur mesure
  Actuel: Max: Min: Moyenne:
Température: 16.9 °C 17.0 °C 8.0 °C 11.6 °C
Point de rosée: 11.0 °C 12.0 °C 6.0 °C 9.3 °C
Humidité: 69% 89% 69% 85%
Vent: 5.5km/h 13.7km/h 0.0km/h 4.5km/h
Rafales: 12.6km/h 17.7km/h - -
VentNE - - East
Pression: 1008.0 hPa 1019.0 hPa 1008.0 hPa -
Pluie: 0.0 mm      
Historical Graphs
 
 
Données tabulaires pour Octobre 23, 2019
Heure Température Point de rosée Pression Vent Vent Rafales Humidité Pluie Taux (Horaire) Conditions
00:00 8.0 °C 6.0 °C 1018.0 hPa NNW 4.0 km/h 4.0 km/h 88% 0.0 mm
00:05 8.2 °C 6.0 °C 1018.0 hPa Calm   5.8 km/h 88% 0.0 mm
00:10 8.5 °C 7.0 °C 1018.0 hPa North 1.8 km/h 6.4 km/h 89% 0.0 mm
00:15 8.5 °C 7.0 °C 1019.0 hPa Calm   6.4 km/h 89% 0.0 mm
00:20 8.7 °C 7.0 °C 1019.0 hPa NNW 4.0 km/h 5.5 km/h 88% 0.0 mm
00:25 8.7 °C 7.0 °C 1019.0 hPa Calm   4.7 km/h 88% 0.0 mm
00:30 8.8 °C 7.0 °C 1019.0 hPa NNW 5.8 km/h 6.4 km/h 88% 0.0 mm
00:35 8.9 °C 7.0 °C 1019.0 hPa Calm   6.4 km/h 88% 0.0 mm
00:40 9.1 °C 7.0 °C 1019.0 hPa NNW 4.7 km/h 6.4 km/h 88% 0.0 mm
00:45 9.1 °C 7.0 °C 1019.0 hPa North 1.4 km/h 6.1 km/h 88% 0.0 mm
00:50 9.1 °C 7.0 °C 1019.0 hPa Calm   6.1 km/h 88% 0.0 mm
00:55 9.2 °C 8.0 °C 1019.0 hPa Calm   5.5 km/h 88% 0.0 mm
01:00 9.2 °C 8.0 °C 1019.0 hPa NNE 1.4 km/h 5.5 km/h 88% 0.0 mm
01:05 9.2 °C 8.0 °C 1019.0 hPa Calm   3.5 km/h 88% 0.0 mm
01:10 9.2 °C 8.0 °C 1019.0 hPa Calm   1.4 km/h 88% 0.0 mm
01:15 9.3 °C 8.0 °C 1019.0 hPa Calm   1.4 km/h 88% 0.0 mm
01:20 9.3 °C 8.0 °C 1019.0 hPa Calm   4.3 km/h 88% 0.0 mm
01:25 9.4 °C 8.0 °C 1019.0 hPa Calm   4.7 km/h 88% 0.0 mm
01:30 9.4 °C 8.0 °C 1018.0 hPa Calm   4.7 km/h 88% 0.0 mm
01:35 9.4 °C 8.0 °C 1018.0 hPa Calm   5.0 km/h 88% 0.0 mm
01:40 9.4 °C 8.0 °C 1018.0 hPa Calm   5.0 km/h 88% 0.0 mm
01:45 9.4 °C 8.0 °C 1018.0 hPa Calm     88% 0.0 mm
01:50 9.5 °C 8.0 °C 1018.0 hPa Calm     88% 0.0 mm
01:55 9.5 °C 8.0 °C 1018.0 hPa Calm   1.4 km/h 88% 0.0 mm
02:00 9.5 °C 8.0 °C 1018.0 hPa Calm   2.1 km/h 88% 0.0 mm
02:05 9.6 °C 8.0 °C 1018.0 hPa Calm   2.1 km/h 88% 0.0 mm
02:10 9.6 °C 8.0 °C 1018.0 hPa Calm   3.2 km/h 88% 0.0 mm
02:15 9.6 °C 8.0 °C 1018.0 hPa Calm   3.2 km/h 88% 0.0 mm
02:20 9.6 °C 8.0 °C 1018.0 hPa Calm   1.8 km/h 88% 0.0 mm
02:25 9.6 °C 8.0 °C 1018.0 hPa NNE 4.3 km/h 4.3 km/h 88% 0.0 mm
02:30 9.7 °C 8.0 °C 1018.0 hPa North 2.6 km/h 4.3 km/h 88% 0.0 mm
02:35 9.7 °C 8.0 °C 1018.0 hPa Calm   4.3 km/h 88% 0.0 mm
02:40 9.7 °C 8.0 °C 1018.0 hPa Calm   5.8 km/h 88% 0.0 mm
02:45 9.7 °C 8.0 °C 1018.0 hPa Calm   5.8 km/h 88% 0.0 mm
02:50 9.8 °C 8.0 °C 1018.0 hPa Calm   6.1 km/h 88% 0.0 mm
02:55 9.8 °C 8.0 °C 1018.0 hPa Calm   6.1 km/h 88% 0.0 mm
03:00 9.8 °C 8.0 °C 1017.0 hPa Calm   6.1 km/h 88% 0.0 mm
03:05 9.9 °C 8.0 °C 1017.0 hPa Calm   6.1 km/h 88% 0.0 mm
03:10 10.0 °C 8.0 °C 1017.0 hPa NE 4.3 km/h 6.4 km/h 88% 0.0 mm
03:15 10.0 °C 8.0 °C 1017.0 hPa Calm   9.7 km/h 88% 0.0 mm
03:20 10.0 °C 8.0 °C 1017.0 hPa Calm   9.7 km/h 88% 0.0 mm
03:25 10.0 °C 8.0 °C 1017.0 hPa NNE 1.4 km/h 5.8 km/h 88% 0.0 mm
03:30 10.0 °C 8.0 °C 1016.0 hPa NNE 1.4 km/h 4.7 km/h 88% 0.0 mm
03:35 10.0 °C 8.0 °C 1016.0 hPa Calm   3.5 km/h 88% 0.0 mm
03:40 10.0 °C 8.0 °C 1016.0 hPa Calm   4.3 km/h 88% 0.0 mm
03:45 10.0 °C 8.0 °C 1017.0 hPa Calm   4.3 km/h 88% 0.0 mm
03:50 10.0 °C 8.0 °C 1017.0 hPa North 1.4 km/h 4.0 km/h 88% 0.0 mm
03:55 10.0 °C 8.0 °C 1017.0 hPa North 4.7 km/h 6.9 km/h 88% 0.0 mm
04:00 10.0 °C 8.0 °C 1017.0 hPa Calm   6.9 km/h 88% 0.0 mm
04:05 10.0 °C 8.0 °C 1017.0 hPa Calm   6.4 km/h 88% 0.0 mm
04:10 10.0 °C 8.0 °C 1017.0 hPa Calm   6.4 km/h 88% 0.0 mm
04:15 10.1 °C 8.0 °C 1017.0 hPa North 5.8 km/h 6.1 km/h 88% 0.0 mm
04:20 10.1 °C 8.0 °C 1017.0 hPa NNE 4.3 km/h 5.8 km/h 88% 0.0 mm
04:25 10.1 °C 8.0 °C 1017.0 hPa Calm   4.7 km/h 88% 0.0 mm
04:30 10.1 °C 8.0 °C 1017.0 hPa NNE 2.1 km/h 4.7 km/h 88% 0.0 mm
04:35 10.1 °C 8.0 °C 1017.0 hPa North 2.1 km/h 4.3 km/h 88% 0.0 mm
04:40 10.1 °C 8.0 °C 1017.0 hPa North 6.4 km/h 6.9 km/h 88% 0.0 mm
04:45 10.2 °C 9.0 °C 1016.0 hPa North 4.7 km/h 9.0 km/h 88% 0.0 mm
04:50 10.2 °C 9.0 °C 1016.0 hPa NNE 6.1 km/h 9.3 km/h 88% 0.0 mm
04:55 10.2 °C 9.0 °C 1016.0 hPa NE 4.7 km/h 9.3 km/h 88% 0.0 mm
05:00 10.2 °C 9.0 °C 1016.0 hPa NNE 8.7 km/h 9.3 km/h 88% 0.0 mm
05:05 10.3 °C 9.0 °C 1016.0 hPa NNE 7.6 km/h 9.7 km/h 88% 0.0 mm
05:10 10.3 °C 9.0 °C 1016.0 hPa NNE 9.3 km/h 12.6 km/h 88% 0.0 mm
05:15 10.4 °C 9.0 °C 1015.0 hPa NNE 1.4 km/h 12.6 km/h 88% 0.0 mm
05:20 10.4 °C 9.0 °C 1015.0 hPa ENE 8.7 km/h 11.6 km/h 88% 0.0 mm
05:25 10.5 °C 9.0 °C 1015.0 hPa NE 3.2 km/h 11.6 km/h 88% 0.0 mm
05:30 10.6 °C 9.0 °C 1015.0 hPa North 5.5 km/h 15.4 km/h 88% 0.0 mm
05:35 10.6 °C 9.0 °C 1015.0 hPa Calm   15.4 km/h 88% 0.0 mm
05:40 10.6 °C 9.0 °C 1015.0 hPa NNE 4.3 km/h 12.6 km/h 88% 0.0 mm
05:45 10.6 °C 9.0 °C 1014.0 hPa Calm   10.1 km/h 88% 0.0 mm
05:50 10.7 °C 9.0 °C 1014.0 hPa NE 9.3 km/h 9.7 km/h 88% 0.0 mm
05:55 10.7 °C 9.0 °C 1014.0 hPa Calm   9.7 km/h 88% 0.0 mm
06:00 10.8 °C 9.0 °C 1015.0 hPa NE 6.9 km/h 9.7 km/h 88% 0.0 mm
06:05 10.8 °C 9.0 °C 1015.0 hPa NE 7.9 km/h 9.3 km/h 88% 0.0 mm
06:10 10.8 °C 9.0 °C 1015.0 hPa NE 9.0 km/h 9.7 km/h 88% 0.0 mm
06:15 10.8 °C 9.0 °C 1015.0 hPa NNE 5.5 km/h 9.7 km/h 88% 0.0 mm
06:20 10.8 °C 9.0 °C 1015.0 hPa NE 7.6 km/h 7.9 km/h 88% 0.0 mm
06:25 10.8 °C 9.0 °C 1015.0 hPa NE 2.1 km/h 8.7 km/h 88% 0.0 mm
06:30 10.8 °C 9.0 °C 1014.0 hPa Calm   8.7 km/h 88% 0.0 mm
06:35 10.9 °C 9.0 °C 1014.0 hPa NE 5.0 km/h 6.4 km/h 88% 0.0 mm
06:40 10.9 °C 9.0 °C 1014.0 hPa Calm   7.2 km/h 88% 0.0 mm
06:45 10.8 °C 9.0 °C 1015.0 hPa NNE 2.1 km/h 7.6 km/h 88% 0.0 mm
06:50 10.9 °C 9.0 °C 1015.0 hPa NE 6.1 km/h 7.6 km/h 88% 0.0 mm
06:55 10.9 °C 9.0 °C 1015.0 hPa NE 6.1 km/h 6.1 km/h 88% 0.0 mm
07:00 10.9 °C 9.0 °C 1015.0 hPa NNE 1.8 km/h 9.0 km/h 88% 0.0 mm
07:05 10.9 °C 9.0 °C 1015.0 hPa NE 2.1 km/h 9.0 km/h 88% 0.0 mm
07:10 10.9 °C 9.0 °C 1015.0 hPa Calm   10.1 km/h 88% 0.0 mm
07:15 10.9 °C 9.0 °C 1015.0 hPa ENE 5.5 km/h 10.1 km/h 88% 0.0 mm
07:20 10.9 °C 9.0 °C 1015.0 hPa NNE 5.5 km/h 6.9 km/h 88% 0.0 mm
07:25 10.9 °C 9.0 °C 1015.0 hPa NE 9.0 km/h 9.0 km/h 88% 0.0 mm
07:30 10.9 °C 9.0 °C 1015.0 hPa NNE 11.9 km/h 13.0 km/h 88% 0.0 mm
07:35 10.9 °C 9.0 °C 1015.0 hPa NE 5.8 km/h 14.0 km/h 88% 0.0 mm
07:40 10.9 °C 9.0 °C 1015.0 hPa NE 11.9 km/h 14.0 km/h 88% 0.0 mm
07:45 10.9 °C 9.0 °C 1014.0 hPa North 11.9 km/h 14.0 km/h 88% 0.0 mm
07:50 10.9 °C 9.0 °C 1014.0 hPa NE 13.7 km/h 16.3 km/h 88% 0.0 mm
07:55 11.1 °C 9.0 °C 1014.0 hPa NE 6.4 km/h 17.7 km/h 87% 0.0 mm
08:00 11.1 °C 9.0 °C 1014.0 hPa NE 7.2 km/h 17.7 km/h 87% 0.0 mm
08:05 11.1 °C 9.0 °C 1014.0 hPa NNE 10.1 km/h 13.0 km/h 87% 0.0 mm
08:10 11.1 °C 9.0 °C 1014.0 hPa NE 3.2 km/h 13.0 km/h 87% 0.0 mm
08:15 11.1 °C 9.0 °C 1014.0 hPa Calm   10.5 km/h 87% 0.0 mm
08:20 11.1 °C 9.0 °C 1014.0 hPa NE 1.4 km/h 10.5 km/h 87% 0.0 mm
08:25 11.1 °C 9.0 °C 1014.0 hPa NE 5.5 km/h 9.7 km/h 87% 0.0 mm
08:30 11.1 °C 9.0 °C 1014.0 hPa North 9.7 km/h 9.7 km/h 87% 0.0 mm
08:35 11.1 °C 9.0 °C 1014.0 hPa Calm   10.1 km/h 87% 0.0 mm
08:40 11.1 °C 9.0 °C 1014.0 hPa NE 7.9 km/h 10.5 km/h 87% 0.0 mm
08:45 11.1 °C 9.0 °C 1014.0 hPa NE 1.8 km/h 11.6 km/h 87% 0.0 mm
08:50 11.1 °C 9.0 °C 1014.0 hPa ENE 11.9 km/h 11.9 km/h 87% 0.0 mm
08:55 11.2 °C 9.0 °C 1014.0 hPa NE 13.0 km/h 13.7 km/h 87% 0.0 mm
09:00 11.2 °C 9.0 °C 1013.0 hPa ENE 11.9 km/h 13.7 km/h 87% 0.0 mm
09:05 11.2 °C 9.0 °C 1013.0 hPa NE 9.0 km/h 13.7 km/h 87% 0.0 mm
09:10 11.2 °C 9.0 °C 1013.0 hPa NE 6.4 km/h 15.4 km/h 87% 0.0 mm
09:15 11.2 °C 9.0 °C 1013.0 hPa NNE 7.9 km/h 15.8 km/h 86% 0.0 mm
09:20 11.3 °C 9.0 °C 1013.0 hPa ENE 8.7 km/h 15.8 km/h 86% 0.0 mm
09:25 11.3 °C 9.0 °C 1013.0 hPa ENE 5.0 km/h 10.1 km/h 86% 0.0 mm
09:30 11.3 °C 9.0 °C 1013.0 hPa NE 5.5 km/h 11.6 km/h 86% 0.0 mm
09:35 11.4 °C 9.0 °C 1013.0 hPa ENE 9.3 km/h 11.6 km/h 86% 0.0 mm
09:40 11.4 °C 9.0 °C 1013.0 hPa NE 7.9 km/h 10.5 km/h 86% 0.0 mm
09:45 11.5 °C 9.0 °C 1013.0 hPa NE 5.5 km/h 10.5 km/h 86% 0.0 mm
09:50 11.5 °C 9.0 °C 1013.0 hPa NE 4.3 km/h 9.7 km/h 86% 0.0 mm
09:55 11.6 °C 9.0 °C 1013.0 hPa NE 9.0 km/h 9.7 km/h 86% 0.0 mm
10:00 11.6 °C 9.0 °C 1013.0 hPa NE 9.7 km/h 10.5 km/h 86% 0.0 mm
10:05 11.7 °C 9.0 °C 1013.0 hPa ENE 5.5 km/h 10.5 km/h 86% 0.0 mm
10:10 11.8 °C 9.0 °C 1013.0 hPa NNE 2.6 km/h 9.7 km/h 86% 0.0 mm
10:15 11.9 °C 10.0 °C 1014.0 hPa NE 10.5 km/h 12.2 km/h 86% 0.0 mm
10:20 12.0 °C 10.0 °C 1014.0 hPa NE 11.6 km/h 13.7 km/h 86% 0.0 mm
10:25 12.0 °C 10.0 °C 1014.0 hPa ENE 9.0 km/h 13.7 km/h 86% 0.0 mm
10:30 12.0 °C 10.0 °C 1012.0 hPa NNE 7.9 km/h 14.8 km/h 84% 0.0 mm
10:35 12.0 °C 10.0 °C 1012.0 hPa NNE 9.7 km/h 14.8 km/h 84% 0.0 mm
10:40 12.1 °C 10.0 °C 1012.0 hPa East 2.1 km/h 14.0 km/h 84% 0.0 mm
10:45 12.1 °C 10.0 °C 1013.0 hPa NE 7.6 km/h 14.0 km/h 84% 0.0 mm
10:50 12.2 °C 10.0 °C 1013.0 hPa NE 7.6 km/h 11.1 km/h 84% 0.0 mm
10:55 12.3 °C 10.0 °C 1013.0 hPa ENE 8.7 km/h 11.6 km/h 84% 0.0 mm
11:00 12.3 °C 10.0 °C 1013.0 hPa NE 8.7 km/h 12.6 km/h 84% 0.0 mm
11:05 12.5 °C 10.0 °C 1013.0 hPa East 5.8 km/h 12.6 km/h 84% 0.0 mm
11:10 12.8 °C 10.0 °C 1013.0 hPa Calm   11.6 km/h 83% 0.0 mm
11:15 12.9 °C 10.0 °C 1012.0 hPa NE 4.3 km/h 12.2 km/h 83% 0.0 mm
11:20 13.0 °C 10.0 °C 1012.0 hPa NE 2.1 km/h 13.0 km/h 82% 0.0 mm
11:25 13.0 °C 10.0 °C 1012.0 hPa North 2.1 km/h 13.0 km/h 83% 0.0 mm
11:30 13.0 °C 10.0 °C 1012.0 hPa ESE 13.0 km/h 13.0 km/h 82% 0.0 mm
11:35 13.0 °C 10.0 °C 1012.0 hPa NE 9.7 km/h 14.0 km/h 82% 0.0 mm
11:40 13.0 °C 10.0 °C 1012.0 hPa Calm   14.0 km/h 82% 0.0 mm
11:45 13.1 °C 10.0 °C 1011.0 hPa NE 3.2 km/h 11.6 km/h 82% 0.0 mm
11:50 13.2 °C 11.0 °C 1011.0 hPa NE 11.9 km/h 11.9 km/h 82% 0.0 mm
11:55 13.8 °C 11.0 °C 1011.0 hPa NE 10.1 km/h 12.6 km/h 82% 0.0 mm
12:00 14.2 °C 11.0 °C 1011.0 hPa NNE 4.7 km/h 13.0 km/h 80% 0.0 mm
12:05 14.4 °C 11.0 °C 1011.0 hPa ENE 4.7 km/h 13.0 km/h 80% 0.0 mm
12:10 14.2 °C 11.0 °C 1011.0 hPa ENE 9.3 km/h 11.9 km/h 79% 0.0 mm
12:15 13.8 °C 10.0 °C 1011.0 hPa NE 7.9 km/h 11.1 km/h 79% 0.0 mm
12:20 13.8 °C 11.0 °C 1011.0 hPa NNE 9.0 km/h 10.5 km/h 80% 0.0 mm
12:25 13.9 °C 11.0 °C 1011.0 hPa NNE 8.7 km/h 11.9 km/h 80% 0.0 mm
12:30 14.0 °C 11.0 °C 1011.0 hPa NNE 5.8 km/h 11.9 km/h 81% 0.0 mm
12:35 14.2 °C 11.0 °C 1011.0 hPa Calm   9.3 km/h 80% 0.0 mm
12:40 14.2 °C 11.0 °C 1011.0 hPa ENE 10.5 km/h 10.5 km/h 80% 0.0 mm
12:45 14.1 °C 11.0 °C 1011.0 hPa NE 1.8 km/h 13.0 km/h 79% 0.0 mm
12:50 14.1 °C 11.0 °C 1011.0 hPa ENE 2.6 km/h 13.0 km/h 80% 0.0 mm
12:55 14.1 °C 11.0 °C 1011.0 hPa Calm   12.6 km/h 80% 0.0 mm
13:00 14.1 °C 11.0 °C 1011.0 hPa ENE 2.6 km/h 9.3 km/h 80% 0.0 mm
13:05 14.1 °C 11.0 °C 1011.0 hPa Calm   6.9 km/h 80% 0.0 mm
13:10 14.1 °C 11.0 °C 1011.0 hPa NE 6.1 km/h 7.2 km/h 80% 0.0 mm
13:15 14.2 °C 11.0 °C 1010.0 hPa NE 4.3 km/h 7.9 km/h 80% 0.0 mm
13:20 14.1 °C 11.0 °C 1010.0 hPa Calm   7.9 km/h 80% 0.0 mm
13:25 14.2 °C 11.0 °C 1010.0 hPa NE 4.7 km/h 6.1 km/h 80% 0.0 mm
13:30 14.2 °C 11.0 °C 1010.0 hPa Calm   6.1 km/h 80% 0.0 mm
13:35 14.2 °C 11.0 °C 1010.0 hPa Calm   6.1 km/h 80% 0.0 mm
13:40 14.2 °C 11.0 °C 1010.0 hPa NNE 2.1 km/h 2.6 km/h 80% 0.0 mm
13:45 14.3 °C 11.0 °C 1010.0 hPa Calm   6.4 km/h 80% 0.0 mm
13:50 14.4 °C 11.0 °C 1010.0 hPa NE 5.8 km/h 6.4 km/h 80% 0.0 mm
13:55 14.6 °C 12.0 °C 1010.0 hPa Calm   7.6 km/h 80% 0.0 mm
14:00 15.1 °C 12.0 °C 1010.0 hPa Calm   7.9 km/h 79% 0.0 mm
14:05 15.8 °C 12.0 °C 1010.0 hPa NNE 6.9 km/h 10.1 km/h 75% 0.0 mm
14:10 16.2 °C 12.0 °C 1010.0 hPa ENE 2.6 km/h 10.1 km/h 76% 0.0 mm
14:15 16.2 °C 12.0 °C 1010.0 hPa NNE 6.4 km/h 9.7 km/h 76% 0.0 mm
14:20 16.5 °C 12.0 °C 1010.0 hPa East 10.1 km/h 10.5 km/h 72% 0.0 mm
14:25 16.7 °C 12.0 °C 1010.0 hPa ENE 7.9 km/h 10.8 km/h 72% 0.0 mm
14:30 16.0 °C 11.0 °C 1009.0 hPa North 8.7 km/h 12.2 km/h 70% 0.0 mm
14:35 15.6 °C 11.0 °C 1009.0 hPa NE 9.7 km/h 12.2 km/h 71% 0.0 mm
14:40 15.6 °C 11.0 °C 1009.0 hPa NE 10.1 km/h 11.9 km/h 73% 0.0 mm
14:45 15.6 °C 11.0 °C 1009.0 hPa NE 7.6 km/h 13.7 km/h 72% 0.0 mm
14:50 15.7 °C 11.0 °C 1009.0 hPa ENE 8.7 km/h 13.7 km/h 74% 0.0 mm
14:55 16.0 °C 12.0 °C 1009.0 hPa NE 11.6 km/h 13.0 km/h 74% 0.0 mm
15:00 16.4 °C 12.0 °C 1009.0 hPa East 10.1 km/h 11.6 km/h 73% 0.0 mm
15:05 16.8 °C 12.0 °C 1009.0 hPa NE 4.3 km/h 12.2 km/h 71% 0.0 mm
15:10 16.6 °C 11.0 °C 1009.0 hPa ESE 2.1 km/h 12.2 km/h 70% 0.0 mm
15:15 16.8 °C 11.0 °C 1008.0 hPa NE 11.9 km/h 11.9 km/h 69% 0.0 mm
15:20 17.0 °C 11.0 °C 1008.0 hPa NNE 7.2 km/h 11.9 km/h 69% 0.0 mm
15:25 17.0 °C 11.0 °C 1008.0 hPa ENE 6.4 km/h 12.6 km/h 69% 0.0 mm
15:30 16.9 °C 11.0 °C 1008.0 hPa NE 5.5 km/h 12.6 km/h 69% 0.0 mm
Données Historique de Météo Turbie

Mise a jour : 23/10/2019 15:30:22
Généré par Cumulus 1.9.4 (1099)